Terminal Aerodrome Forecast
Issued by NWS

Home | Current Version | Previous Version | Text Only | Print | Product List | Glossary On
Versions: 1 2 3 4 5 6 7 8 9 10 11 12 13 14 15 16 17
000
FTAK31 PAJN 180500
TAFAJN
TAF
PAJN 180521Z 1806/1906 09006KT P6SM FEW030 BKN045 OVC140
     FM181200 10008KT P6SM VCSH BKN035 OVC050
     FM181600 10011KT P6SM -RA SCT030 OVC050
     FM182200 11018G26KT 6SM -RA SCT025 OVC040
     FM190200 11015G23KT P6SM -RA SCT025 OVC040=

USA.gov is the U.S. government's official web portal to all federal, state and local government web resources and services.